Time;durP1;ratioP1;P1;durP2;ratioP2;P2;SDS_P1;SDS_P2;PMS_P1;PMS_P2;Temp;Humidity;BMP_temperature;BMP_pressure;BME280_temperature;BME280_humidity;BME280_pressure;Samples;Min_cycle;Max_cycle;Signal;HPM_P1;HPM_P2
2022/09/15 00:00:27;;;;;;;0.50;0.30;;;13.50;99.90;;;;;;5071351;28;20527;-77
2022/09/15 00:02:55;;;;;;;1.10;1.07;;;13.40;99.90;;;;;;5071047;28;20867;-77
2022/09/15 00:05:21;;;;;;;0.70;0.70;;;13.40;99.90;;;;;;5071297;28;20443;-77
2022/09/15 00:07:48;;;;;;;0.70;0.70;;;13.40;99.90;;;;;;5071219;28;20817;-77
2022/09/15 00:10:16;;;;;;;0.50;0.40;;;13.40;99.90;;;;;;5071654;28;20435;-77
2022/09/15 00:12:43;;;;;;;0.50;0.30;;;13.40;99.90;;;;;;5070700;28;20493;-77
2022/09/15 00:15:13;;;;;;;0.50;0.40;;;13.30;99.90;;;;;;5070730;28;20440;-77
2022/09/15 00:17:40;;;;;;;0.50;0.50;;;13.20;99.90;;;;;;5071240;28;20491;-78
2022/09/15 00:20:08;;;;;;;0.50;0.40;;;13.20;99.90;;;;;;5071567;28;20450;-77
2022/09/15 00:22:35;;;;;;;0.50;0.50;;;13.20;99.90;;;;;;5070785;28;20881;-77
2022/09/15 00:25:02;;;;;;;0.53;0.40;;;13.10;99.90;;;;;;5070409;28;20570;-76
2022/09/15 00:27:32;;;;;;;0.50;0.40;;;13.10;99.90;;;;;;5071141;28;20450;-77
2022/09/15 00:29:58;;;;;;;0.73;0.73;;;13.10;99.90;;;;;;5070262;28;20455;-77
2022/09/15 00:32:25;;;;;;;0.50;0.40;;;13.10;99.90;;;;;;5071073;28;20449;-74
2022/09/15 00:34:52;;;;;;;0.60;0.60;;;13.10;99.90;;;;;;5070269;28;20924;-77
2022/09/15 00:37:19;;;;;;;0.60;0.60;;;13.20;99.90;;;;;;5072605;28;20576;-77
2022/09/15 00:39:46;;;;;;;0.50;0.40;;;13.20;99.90;;;;;;5074630;28;20442;-77
2022/09/15 00:42:15;;;;;;;0.50;0.40;;;13.20;99.90;;;;;;5074738;28;20787;-77
2022/09/15 00:44:52;;;;;;;1.10;0.90;;;13.10;99.90;;;;;;5074028;28;20539;-77
2022/09/15 00:47:23;;;;;;;0.50;0.40;;;13.00;99.90;;;;;;5074660;28;20423;-76
2022/09/15 00:49:55;;;;;;;0.50;0.40;;;13.00;99.90;;;;;;5074800;28;20419;-77
2022/09/15 00:52:26;;;;;;;0.50;0.40;;;13.00;99.90;;;;;;5074383;28;20440;-78
2022/09/15 00:54:57;;;;;;;0.50;0.40;;;12.90;99.90;;;;;;5074221;28;20417;-78
2022/09/15 00:57:29;;;;;;;0.50;0.30;;;12.80;99.90;;;;;;5074225;28;20439;-77
2022/09/15 00:59:59;;;;;;;0.80;0.80;;;12.80;99.90;;;;;;5074543;28;20423;-77
2022/09/15 01:02:29;;;;;;;0.50;0.40;;;12.80;99.90;;;;;;5075318;28;20526;-75
2022/09/15 01:04:57;;;;;;;0.50;0.40;;;12.80;99.90;;;;;;5074410;28;20551;-78
2022/09/15 01:07:28;;;;;;;0.50;0.30;;;12.80;99.90;;;;;;5074874;28;20937;-77
2022/09/15 01:09:58;;;;;;;2.80;2.70;;;12.70;99.90;;;;;;5074747;28;20456;-78
2022/09/15 01:12:27;;;;;;;0.60;0.60;;;12.80;99.90;;;;;;5075188;28;20522;-77
2022/09/15 01:14:54;;;;;;;0.50;0.40;;;12.80;99.90;;;;;;5074283;28;20436;-79
2022/09/15 01:17:33;;;;;;;0.50;0.40;;;12.80;99.90;;;;;;5074110;28;21003;-77
2022/09/15 01:20:39;;;;;;;0.77;0.70;;;12.80;99.90;;;;;;5074235;28;20425;-78
2022/09/15 01:23:24;;;;;;;0.50;0.40;;;12.80;99.90;;;;;;5074714;28;20458;-78
2022/09/15 01:26:27;;;;;;;0.50;0.40;;;12.70;99.90;;;;;;5074214;28;20435;-78
2022/09/15 01:29:18;;;;;;;3.13;2.93;;;12.70;99.90;;;;;;5063242;28;20472;-77
2022/09/15 01:34:44;;;;;;;0.50;0.40;;;12.60;99.90;;;;;;5073849;28;20475;-78
2022/09/15 01:37:21;;;;;;;0.50;0.40;;;12.70;99.90;;;;;;5073908;28;20506;-77
2022/09/15 01:39:50;;;;;;;0.50;0.40;;;12.70;99.90;;;;;;5073849;28;20459;-77
2022/09/15 01:42:18;;;;;;;0.80;0.80;;;12.70;99.90;;;;;;5073868;28;20205;-77
2022/09/15 01:44:49;;;;;;;0.50;0.40;;;12.70;99.90;;;;;;5073295;28;20481;-77
2022/09/15 01:47:19;;;;;;;0.50;0.40;;;12.70;99.90;;;;;;5073548;28;20465;-77
2022/09/15 01:49:50;;;;;;;0.90;0.70;;;12.80;99.90;;;;;;5071908;28;20454;-78
2022/09/15 01:52:20;;;;;;;0.50;0.40;;;12.70;99.90;;;;;;5073689;28;20782;-77
2022/09/15 01:54:52;;;;;;;0.50;0.40;;;12.60;99.90;;;;;;5073239;28;20442;-77
2022/09/15 01:57:20;;;;;;;0.50;0.40;;;12.60;99.90;;;;;;5072957;28;20421;-77
2022/09/15 01:59:47;;;;;;;0.50;0.40;;;12.70;99.90;;;;;;5072972;28;20439;-77
2022/09/15 02:02:20;;;;;;;1.80;1.37;;;12.70;99.90;;;;;;5073067;28;20787;-78
2022/09/15 02:04:52;;;;;;;0.50;0.50;;;12.70;99.90;;;;;;5072725;28;20474;-77
2022/09/15 02:07:30;;;;;;;1.07;1.07;;;12.70;99.90;;;;;;5073075;28;21000;-77
2022/09/15 02:10:03;;;;;;;0.50;0.40;;;12.80;99.90;;;;;;5072707;28;20452;-77
2022/09/15 02:12:35;;;;;;;0.50;0.40;;;12.90;99.90;;;;;;5073400;28;20430;-77
2022/09/15 02:15:07;;;;;;;0.50;0.40;;;12.90;99.90;;;;;;5072436;28;20504;-78
2022/09/15 02:17:41;;;;;;;0.50;0.40;;;12.90;99.90;;;;;;5073140;28;20528;-77
2022/09/15 02:20:14;;;;;;;0.50;0.40;;;13.00;99.90;;;;;;5073014;28;20869;-78
2022/09/15 02:22:46;;;;;;;3.07;2.87;;;12.90;99.90;;;;;;5072309;28;20447;-77
2022/09/15 02:25:17;;;;;;;0.50;0.40;;;12.90;99.90;;;;;;5072202;28;20473;-77
2022/09/15 02:27:49;;;;;;;0.50;0.40;;;12.90;99.90;;;;;;5072418;28;20465;-77
2022/09/15 02:30:18;;;;;;;0.50;0.40;;;12.90;99.90;;;;;;5072088;28;20444;-77
2022/09/15 02:32:53;;;;;;;0.50;0.40;;;12.90;99.90;;;;;;5072491;28;20459;-77
2022/09/15 02:35:20;;;;;;;0.50;0.40;;;13.00;99.90;;;;;;5072008;28;20446;-77
2022/09/15 02:37:48;;;;;;;0.77;0.77;;;12.90;99.90;;;;;;5072279;28;20467;-77
2022/09/15 02:40:15;;;;;;;0.50;0.40;;;13.00;99.90;;;;;;5072264;28;20439;-77
2022/09/15 02:42:53;;;;;;;0.63;0.63;;;13.00;99.90;;;;;;5072256;28;20921;-77
2022/09/15 02:45:20;;;;;;;0.50;0.40;;;12.90;99.90;;;;;;5071600;28;20483;-77
2022/09/15 02:47:49;;;;;;;0.60;0.50;;;12.90;99.90;;;;;;5071872;28;20459;-77
2022/09/15 02:50:16;;;;;;;2.20;2.10;;;13.00;99.90;;;;;;5072411;28;20848;-77
2022/09/15 02:52:43;;;;;;;1.00;1.00;;;13.00;99.90;;;;;;5072019;28;20439;-78
2022/09/15 02:55:10;;;;;;;0.70;0.70;;;13.00;99.90;;;;;;5072077;28;20442;-77
2022/09/15 02:57:37;;;;;;;0.57;0.53;;;13.00;99.90;;;;;;5072160;28;20447;-76
2022/09/15 03:00:16;;;;;;;0.50;0.40;;;13.10;99.90;;;;;;5071735;28;20480;-77
2022/09/15 03:02:45;;;;;;;0.50;0.30;;;13.10;99.90;;;;;;5072082;28;20424;-78
2022/09/15 03:05:15;;;;;;;0.60;0.53;;;13.10;99.90;;;;;;5071847;28;20475;-78
2022/09/15 03:07:42;;;;;;;0.50;0.40;;;13.20;99.90;;;;;;5072581;28;20459;-77
2022/09/15 03:10:11;;;;;;;0.50;0.40;;;13.20;99.90;;;;;;5071976;28;20526;-77
2022/09/15 03:12:39;;;;;;;2.10;2.00;;;13.20;99.90;;;;;;5071418;28;20921;-77
2022/09/15 03:15:07;;;;;;;0.50;0.40;;;13.30;99.90;;;;;;5070843;28;20438;-77
2022/09/15 03:17:35;;;;;;;0.50;0.40;;;13.30;99.90;;;;;;5071583;28;20816;-77
2022/09/15 03:20:02;;;;;;;1.00;0.80;;;13.30;99.90;;;;;;5071423;28;20475;-77
2022/09/15 03:22:30;;;;;;;0.50;0.40;;;13.30;99.90;;;;;;5071388;28;20530;-76
2022/09/15 03:24:57;;;;;;;0.57;0.57;;;13.30;99.90;;;;;;5071204;28;20566;-77
2022/09/15 03:27:24;;;;;;;3.20;3.00;;;13.30;99.90;;;;;;5071170;28;20462;-76
2022/09/15 03:29:50;;;;;;;0.50;0.40;;;13.40;99.90;;;;;;5070617;28;20455;-77
2022/09/15 03:32:17;;;;;;;2.90;2.67;;;13.40;99.90;;;;;;5071299;28;20447;-77
2022/09/15 03:34:44;;;;;;;0.50;0.40;;;13.40;99.90;;;;;;5071129;28;20436;-77
2022/09/15 03:37:11;;;;;;;1.17;1.13;;;13.40;99.90;;;;;;5071202;28;20436;-77
2022/09/15 03:39:39;;;;;;;0.80;0.80;;;13.50;99.90;;;;;;5071180;28;20455;-77
2022/09/15 03:42:06;;;;;;;0.50;0.40;;;13.50;99.90;;;;;;5071669;28;20533;-77
2022/09/15 03:44:34;;;;;;;2.43;1.70;;;13.50;99.90;;;;;;5070727;28;20477;-77
2022/09/15 03:47:01;;;;;;;0.50;0.40;;;13.50;99.90;;;;;;5071585;28;20971;-77
2022/09/15 03:49:27;;;;;;;0.80;0.80;;;13.50;99.90;;;;;;5071573;28;20462;-77
2022/09/15 03:51:54;;;;;;;0.50;0.40;;;13.50;99.90;;;;;;5071126;28;20451;-77
2022/09/15 03:54:21;;;;;;;0.50;0.30;;;13.50;99.90;;;;;;5070855;28;20535;-78
2022/09/15 03:56:50;;;;;;;0.50;0.40;;;13.50;99.90;;;;;;5071209;28;20973;-77
2022/09/15 03:59:19;;;;;;;0.50;0.40;;;13.50;99.90;;;;;;5071015;28;20593;-77
2022/09/15 04:01:46;;;;;;;0.50;0.40;;;13.50;99.90;;;;;;5066317;28;20451;-78
2022/09/15 04:04:13;;;;;;;0.60;0.60;;;13.50;99.90;;;;;;5071030;28;20450;-78
2022/09/15 04:06:41;;;;;;;0.73;0.73;;;13.50;99.90;;;;;;5071334;28;20970;-77
2022/09/15 04:09:09;;;;;;;0.50;0.50;;;13.50;99.90;;;;;;5070913;28;20529;-77
2022/09/15 04:11:36;;;;;;;0.50;0.40;;;13.50;99.90;;;;;;5071832;28;20447;-77
2022/09/15 04:14:04;;;;;;;0.50;0.30;;;13.50;99.90;;;;;;5074608;28;21127;-78
2022/09/15 04:16:31;;;;;;;0.70;0.70;;;13.50;99.90;;;;;;5074987;28;20442;-77
2022/09/15 04:18:58;;;;;;;0.50;0.40;;;13.60;99.90;;;;;;5074899;28;20460;-77
2022/09/15 04:21:26;;;;;;;0.50;0.40;;;13.60;99.90;;;;;;5074580;28;20535;-77
2022/09/15 04:23:53;;;;;;;1.07;1.07;;;13.60;99.90;;;;;;5074535;28;20448;-75
2022/09/15 04:26:23;;;;;;;0.60;0.40;;;13.60;99.90;;;;;;5074831;28;20479;-78
2022/09/15 04:28:50;;;;;;;0.50;0.33;;;13.70;99.90;;;;;;5074820;28;20897;-78
2022/09/15 04:31:19;;;;;;;0.57;0.50;;;13.70;99.90;;;;;;5073955;28;20447;-77
2022/09/15 04:33:47;;;;;;;0.50;0.50;;;13.70;99.90;;;;;;5074345;28;20439;-77
2022/09/15 04:36:16;;;;;;;1.47;1.37;;;13.70;99.90;;;;;;5074357;28;20945;-77
2022/09/15 04:38:43;;;;;;;0.50;0.40;;;13.70;99.90;;;;;;5074946;28;20929;-77
2022/09/15 04:41:10;;;;;;;0.60;0.60;;;13.70;99.90;;;;;;5074220;28;20446;-77
2022/09/15 04:43:37;;;;;;;0.50;0.40;;;13.70;99.90;;;;;;5074636;28;20852;-77
2022/09/15 04:46:05;;;;;;;2.20;2.10;;;13.70;99.90;;;;;;5073829;28;20828;-77
2022/09/15 04:48:33;;;;;;;0.50;0.40;;;13.70;99.90;;;;;;5074398;28;20471;-78
2022/09/15 04:51:04;;;;;;;0.50;0.40;;;13.70;99.90;;;;;;5074358;28;20440;-77
2022/09/15 04:53:31;;;;;;;0.50;0.30;;;13.70;99.90;;;;;;5074079;28;20436;-76
2022/09/15 04:56:05;;;;;;;0.50;0.30;;;13.70;99.90;;;;;;5073843;28;20436;-77
2022/09/15 04:58:36;;;;;;;0.50;0.30;;;13.70;99.90;;;;;;5073768;28;20461;-77
2022/09/15 05:01:08;;;;;;;0.50;0.40;;;13.70;99.90;;;;;;5073493;28;20890;-77
2022/09/15 05:03:37;;;;;;;2.57;1.00;;;13.70;99.90;;;;;;5074388;28;20420;-76
2022/09/15 05:06:04;;;;;;;0.50;0.40;;;13.80;99.90;;;;;;5073264;28;20468;-77
2022/09/15 05:08:31;;;;;;;0.50;0.40;;;13.80;99.90;;;;;;5074965;28;20456;-78
2022/09/15 05:10:59;;;;;;;0.50;0.40;;;13.80;99.90;;;;;;5073443;28;20436;-78
2022/09/15 05:13:26;;;;;;;0.80;0.80;;;13.80;99.90;;;;;;5073630;28;20444;-78
2022/09/15 05:15:53;;;;;;;0.50;0.40;;;13.80;99.90;;;;;;5073543;28;20437;-77
2022/09/15 05:18:20;;;;;;;0.50;0.40;;;13.80;99.90;;;;;;5073667;28;20457;-78
2022/09/15 05:20:49;;;;;;;0.67;0.67;;;13.80;99.90;;;;;;5073463;28;20513;-78
2022/09/15 05:23:15;;;;;;;0.50;0.40;;;13.80;99.90;;;;;;5072707;28;20480;-78
2022/09/15 05:25:42;;;;;;;0.50;0.40;;;13.90;99.90;;;;;;5073263;28;20494;-78
2022/09/15 05:28:09;;;;;;;0.50;0.40;;;13.90;99.90;;;;;;5073165;28;20548;-78
2022/09/15 05:30:39;;;;;;;0.50;0.40;;;13.90;99.90;;;;;;5072900;28;20841;-78
2022/09/15 05:33:06;;;;;;;0.50;0.40;;;13.90;99.90;;;;;;5072828;28;20470;-78
2022/09/15 05:35:33;;;;;;;0.50;0.40;;;13.90;99.90;;;;;;5072823;28;20433;-73
2022/09/15 05:38:01;;;;;;;0.50;0.30;;;14.00;99.90;;;;;;5073015;28;20543;-77
2022/09/15 05:40:28;;;;;;;0.50;0.40;;;14.00;99.90;;;;;;5073480;28;20456;-77
2022/09/15 05:42:55;;;;;;;0.50;0.40;;;14.00;99.90;;;;;;5073096;28;20830;-78
2022/09/15 05:45:22;;;;;;;0.50;0.30;;;14.00;99.90;;;;;;5072366;28;20468;-78
2022/09/15 05:47:49;;;;;;;0.50;0.40;;;14.10;99.90;;;;;;5072970;28;21028;-78
2022/09/15 05:50:16;;;;;;;0.50;0.40;;;14.10;99.90;;;;;;5072470;28;20934;-78
2022/09/15 05:52:43;;;;;;;0.50;0.40;;;14.10;99.90;;;;;;5072809;28;20436;-78
2022/09/15 05:55:11;;;;;;;0.50;0.40;;;14.10;99.90;;;;;;5072319;28;20440;-78
2022/09/15 05:57:38;;;;;;;0.50;0.40;;;14.20;99.90;;;;;;5072373;28;20436;-78
2022/09/15 06:00:06;;;;;;;0.50;0.40;;;14.30;99.90;;;;;;5072778;28;20436;-78
2022/09/15 06:02:33;;;;;;;1.57;1.57;;;14.30;99.90;;;;;;5072292;28;20432;-78
2022/09/15 06:05:00;;;;;;;0.50;0.40;;;14.30;99.90;;;;;;5071754;28;20524;-77
2022/09/15 06:07:27;;;;;;;0.50;0.40;;;14.40;99.90;;;;;;5072213;28;20436;-78
2022/09/15 06:09:54;;;;;;;0.50;0.40;;;14.30;99.90;;;;;;5072572;28;20809;-78
2022/09/15 06:12:22;;;;;;;0.50;0.40;;;14.40;99.90;;;;;;5072338;28;20427;-78
2022/09/15 06:14:51;;;;;;;0.50;0.40;;;14.40;99.90;;;;;;5071864;28;20446;-78
2022/09/15 06:17:18;;;;;;;1.43;1.33;;;14.40;99.90;;;;;;5072620;28;20431;-78
2022/09/15 06:19:45;;;;;;;0.50;0.40;;;14.40;99.90;;;;;;5072268;28;20452;-78
2022/09/15 06:22:12;;;;;;;0.50;0.40;;;14.40;99.90;;;;;;5072166;28;20435;-78
2022/09/15 06:24:39;;;;;;;1.67;1.57;;;14.40;99.90;;;;;;5071823;28;20460;-78
2022/09/15 06:27:06;;;;;;;1.00;0.87;;;14.50;99.90;;;;;;5071922;28;20665;-78
2022/09/15 06:29:35;;;;;;;0.50;0.40;;;14.60;99.90;;;;;;5071416;28;20551;-78
2022/09/15 06:32:03;;;;;;;1.43;0.97;;;14.60;99.90;;;;;;5071972;28;20425;-78
2022/09/15 06:34:31;;;;;;;0.50;0.50;;;14.70;99.90;;;;;;5070933;28;20468;-79
2022/09/15 06:36:58;;;;;;;0.50;0.40;;;14.70;99.90;;;;;;5071958;28;20432;-78
2022/09/15 06:39:25;;;;;;;0.60;0.40;;;14.80;99.90;;;;;;5071882;28;20464;-74
2022/09/15 06:41:52;;;;;;;0.50;0.40;;;14.80;99.90;;;;;;5072263;28;20444;-77
2022/09/15 06:44:19;;;;;;;0.50;0.40;;;14.90;99.90;;;;;;5071745;28;20455;-78
2022/09/15 06:46:47;;;;;;;0.50;0.50;;;14.90;99.90;;;;;;5071548;28;20468;-78
2022/09/15 06:49:14;;;;;;;0.50;0.40;;;15.00;99.90;;;;;;5071493;28;20460;-79
2022/09/15 06:51:41;;;;;;;0.50;0.40;;;15.00;99.90;;;;;;5072090;28;20787;-78
2022/09/15 06:54:08;;;;;;;1.37;1.27;;;15.10;99.90;;;;;;5071232;28;20953;-78
2022/09/15 06:56:35;;;;;;;0.50;0.40;;;15.10;99.90;;;;;;5071451;28;20432;-74
2022/09/15 06:59:02;;;;;;;0.50;0.40;;;15.10;99.90;;;;;;5071550;28;20464;-78
2022/09/15 07:01:30;;;;;;;1.80;1.43;;;15.10;99.90;;;;;;5071852;28;20443;-76
2022/09/15 07:04:00;;;;;;;0.50;0.50;;;15.20;99.90;;;;;;5071339;28;20436;-77
2022/09/15 07:06:28;;;;;;;0.50;0.30;;;15.30;99.90;;;;;;5071570;28;20849;-78
2022/09/15 07:08:55;;;;;;;0.50;0.40;;;15.30;99.90;;;;;;5072409;28;20462;-79
2022/09/15 07:11:22;;;;;;;2.80;1.53;;;15.40;99.90;;;;;;5071215;28;20448;-78
2022/09/15 07:13:49;;;;;;;0.50;0.40;;;15.50;99.90;;;;;;5071120;28;20468;-77
2022/09/15 07:16:17;;;;;;;0.50;0.30;;;15.60;99.90;;;;;;5072303;28;20559;-78
2022/09/15 07:18:44;;;;;;;0.50;0.40;;;15.60;99.90;;;;;;5071917;28;20972;-77
2022/09/15 07:21:14;;;;;;;0.50;0.40;;;15.70;99.90;;;;;;5071677;28;20611;-77
2022/09/15 07:23:42;;;;;;;0.50;0.40;;;15.70;99.90;;;;;;5071360;28;20428;-78
2022/09/15 07:26:10;;;;;;;0.50;0.30;;;15.80;99.90;;;;;;5071038;28;20571;-78
2022/09/15 07:28:38;;;;;;;0.53;0.40;;;15.90;99.90;;;;;;5071241;28;20803;-79
2022/09/15 07:31:07;;;;;;;0.50;0.40;;;16.10;99.90;;;;;;5070945;28;20448;-78
2022/09/15 07:33:34;;;;;;;0.50;0.40;;;16.20;99.90;;;;;;5071179;28;20532;-78
2022/09/15 07:36:02;;;;;;;0.50;0.40;;;16.50;99.90;;;;;;5071241;28;20437;-75
2022/09/15 07:38:30;;;;;;;0.50;0.50;;;16.70;99.90;;;;;;5070993;28;20552;-78
2022/09/15 07:41:03;;;;;;;52.70;24.60;;;17.00;99.90;;;;;;5070707;28;20450;-78
2022/09/15 07:43:30;;;;;;;1.13;1.03;;;17.20;99.90;;;;;;5071170;28;20427;-79
2022/09/15 07:45:57;;;;;;;1.63;1.43;;;17.20;99.90;;;;;;5072229;28;20560;-77
2022/09/15 07:48:24;;;;;;;1.77;1.67;;;17.50;99.90;;;;;;5074977;28;21003;-75
2022/09/15 07:50:51;;;;;;;0.50;0.40;;;17.70;99.90;;;;;;5075000;28;20447;-78
2022/09/15 07:53:17;;;;;;;2.10;1.17;;;17.90;99.90;;;;;;5075265;28;20531;-78
2022/09/15 07:55:46;;;;;;;0.53;0.40;;;18.00;99.90;;;;;;5074892;28;20530;-77
2022/09/15 07:58:12;;;;;;;0.50;0.40;;;18.00;99.90;;;;;;5075090;28;20459;-78
2022/09/15 08:00:39;;;;;;;0.50;0.30;;;18.20;99.90;;;;;;5074650;28;20447;-78
2022/09/15 08:03:06;;;;;;;0.50;0.30;;;18.20;99.90;;;;;;5074541;28;20446;-80
2022/09/15 08:05:33;;;;;;;0.50;0.40;;;18.20;99.90;;;;;;5074933;28;20867;-77
2022/09/15 08:08:00;;;;;;;0.50;0.30;;;18.40;99.90;;;;;;5075248;28;20452;-78
2022/09/15 08:10:26;;;;;;;0.97;0.87;;;18.80;99.90;;;;;;5075276;28;20448;-75
2022/09/15 08:12:55;;;;;;;1.97;1.07;;;19.20;99.90;;;;;;5075628;28;20448;-78
2022/09/15 08:15:21;;;;;;;0.50;0.30;;;19.40;99.90;;;;;;5074290;28;20440;-78
2022/09/15 08:17:48;;;;;;;0.50;0.30;;;19.40;99.90;;;;;;5074942;28;20452;-79
2022/09/15 08:20:15;;;;;;;0.50;0.30;;;19.40;99.90;;;;;;5074924;28;20440;-78
2022/09/15 08:22:44;;;;;;;0.50;0.40;;;19.60;99.90;;;;;;5075149;28;20432;-79
2022/09/15 08:25:11;;;;;;;0.50;0.30;;;19.70;99.90;;;;;;5074609;28;20436;-78
2022/09/15 08:27:38;;;;;;;0.50;0.37;;;19.70;99.90;;;;;;5074726;28;20476;-79
2022/09/15 08:30:08;;;;;;;0.50;0.40;;;19.70;99.90;;;;;;5074241;28;20447;-78
2022/09/15 08:32:34;;;;;;;0.50;0.40;;;20.00;99.90;;;;;;5075191;28;20440;-79
2022/09/15 08:35:01;;;;;;;0.60;0.50;;;20.10;99.90;;;;;;5073932;28;20448;-78
2022/09/15 08:37:28;;;;;;;0.50;0.30;;;20.00;99.90;;;;;;5074310;28;20805;-79
2022/09/15 08:39:55;;;;;;;0.50;0.40;;;19.70;99.90;;;;;;5074125;28;20526;-79
2022/09/15 08:42:25;;;;;;;0.50;0.30;;;19.70;99.90;;;;;;5074441;28;20444;-78
2022/09/15 08:44:57;;;;;;;0.50;0.30;;;19.70;99.90;;;;;;5073485;28;20444;-78
2022/09/15 08:47:29;;;;;;;0.50;0.50;;;19.50;99.90;;;;;;5074710;28;20575;-77
2022/09/15 08:50:02;;;;;;;0.50;0.30;;;19.60;99.90;;;;;;5074251;28;20434;-77
2022/09/15 08:52:35;;;;;;;0.50;0.33;;;19.60;99.90;;;;;;5073641;28;20444;-76
2022/09/15 08:55:05;;;;;;;9.07;0.60;;;19.80;99.90;;;;;;5073634;28;20421;-78
2022/09/15 08:57:32;;;;;;;0.50;0.30;;;20.00;99.90;;;;;;5074248;28;20481;-78
2022/09/15 08:59:59;;;;;;;0.50;0.30;;;20.40;99.90;;;;;;5073614;28;20442;-78
2022/09/15 09:03:04;;;;;;;0.50;0.30;;;20.90;99.90;;;;;;5073878;28;20442;-79
2022/09/15 09:05:44;;;;;;;0.50;0.30;;;21.50;99.90;;;;;;5074155;28;20440;-78
2022/09/15 09:08:42;;;;;;;0.50;0.30;;;22.00;99.90;;;;;;5073691;28;20463;-78
2022/09/15 09:11:18;;;;;;;0.50;0.30;;;21.80;99.90;;;;;;5073612;28;20421;-78
2022/09/15 09:13:52;;;;;;;0.50;0.30;;;21.50;99.90;;;;;;5074219;28;20420;-79
2022/09/15 09:16:47;;;;;;;0.50;0.40;;;21.70;99.90;;;;;;5074349;28;20422;-78
2022/09/15 09:19:44;;;;;;;0.50;0.30;;;22.00;99.90;;;;;;5074454;28;20452;-78
2022/09/15 09:22:15;;;;;;;0.50;0.40;;;21.80;99.90;;;;;;5073684;28;20454;-78
2022/09/15 09:24:45;;;;;;;0.60;0.60;;;21.90;99.90;;;;;;5073445;28;20440;-78
2022/09/15 09:27:14;;;;;;;0.50;0.30;;;21.90;99.90;;;;;;5076012;28;20474;-78
2022/09/15 09:29:48;;;;;;;1.17;1.07;;;21.70;99.90;;;;;;5074315;28;20470;-78
2022/09/15 09:32:19;;;;;;;0.50;0.40;;;21.40;99.90;;;;;;5073493;28;20952;-79
2022/09/15 09:34:54;;;;;;;0.50;0.30;;;21.40;99.90;;;;;;5073383;28;20796;-79
2022/09/15 09:37:21;;;;;;;0.50;0.30;;;21.20;99.90;;;;;;5073182;28;20898;-79
2022/09/15 09:39:48;;;;;;;0.50;0.30;;;21.10;99.90;;;;;;5072886;28;20996;-79
2022/09/15 09:42:17;;;;;;;0.50;0.30;;;20.90;99.90;;;;;;5073564;28;20436;-79
2022/09/15 09:44:44;;;;;;;0.50;0.30;;;20.90;99.90;;;;;;5073327;28;20463;-78
2022/09/15 09:47:12;;;;;;;0.50;0.30;;;20.90;99.90;;;;;;5073231;28;20567;-78
2022/09/15 09:49:42;;;;;;;0.50;0.30;;;20.70;99.90;;;;;;5073172;28;20460;-78
2022/09/15 09:52:11;;;;;;;0.73;0.70;;;20.90;99.90;;;;;;5072484;28;20441;-77
2022/09/15 09:54:38;;;;;;;0.50;0.50;;;20.90;99.90;;;;;;5072583;28;20856;-78
2022/09/15 09:57:29;;;;;;;0.50;0.37;;;20.70;99.90;;;;;;5073122;28;20436;-77
2022/09/15 09:59:56;;;;;;;0.50;0.40;;;20.50;99.90;;;;;;5073009;28;20428;-77
2022/09/15 10:02:24;;;;;;;0.50;0.30;;;20.50;99.90;;;;;;5072807;28;20794;-77
2022/09/15 10:04:53;;;;;;;0.50;0.30;;;20.70;99.90;;;;;;5072110;28;20443;-78
2022/09/15 10:07:24;;;;;;;0.50;0.30;;;20.80;99.90;;;;;;5072418;28;20499;-78
2022/09/15 10:09:54;;;;;;;0.50;0.40;;;20.70;99.90;;;;;;5070899;28;20816;-78
2022/09/15 10:12:29;;;;;;;0.50;0.40;;;20.70;99.90;;;;;;5071843;28;20440;-79
2022/09/15 10:14:59;;;;;;;0.50;0.30;;;20.80;99.90;;;;;;5072222;28;20425;-76
2022/09/15 10:17:37;;;;;;;0.50;0.40;;;20.80;99.90;;;;;;5071597;28;20458;-78
2022/09/15 10:20:06;;;;;;;0.50;0.30;;;21.10;99.90;;;;;;5074148;28;20456;-77
2022/09/15 10:22:37;;;;;;;0.50;0.30;;;21.30;99.90;;;;;;5075144;28;20436;-78
2022/09/15 10:25:34;;;;;;;0.50;0.30;;;21.50;99.90;;;;;;5074301;28;20492;-78
2022/09/15 10:28:13;;;;;;;0.50;0.30;;;22.10;99.90;;;;;;5075882;28;20484;-78
2022/09/15 10:30:55;;;;;;;0.57;0.43;;;23.00;99.90;;;;;;5075956;28;21142;-78
2022/09/15 10:33:26;;;;;;;0.50;0.30;;;23.90;99.90;;;;;;5075258;28;20420;-77
2022/09/15 10:35:54;;;;;;;0.50;0.43;;;23.80;99.90;;;;;;5073906;28;20444;-78
2022/09/15 10:38:32;;;;;;;0.50;0.30;;;23.50;99.90;;;;;;5073769;28;20471;-78
2022/09/15 10:41:10;;;;;;;0.50;0.30;;;23.50;99.90;;;;;;5074627;28;20425;-78
2022/09/15 10:43:46;;;;;;;1.73;1.63;;;23.10;99.90;;;;;;5074164;28;20512;-76
2022/09/15 10:46:20;;;;;;;0.50;0.30;;;22.70;99.90;;;;;;5073913;28;20428;-78
2022/09/15 10:49:10;;;;;;;0.50;0.33;;;22.10;99.90;;;;;;5073188;28;20471;-76
2022/09/15 10:51:48;;;;;;;0.50;0.33;;;21.50;99.90;;;;;;5074083;28;20412;-78
2022/09/15 10:54:41;;;;;;;0.50;0.40;;;21.10;99.90;;;;;;5071659;28;20427;-78
2022/09/15 10:57:16;;;;;;;0.50;0.30;;;20.60;99.90;;;;;;5072132;28;20428;-78
2022/09/15 10:59:49;;;;;;;0.50;0.30;;;20.20;99.90;;;;;;5071541;28;20543;-78
2022/09/15 11:02:35;;;;;;;0.50;0.30;;;19.80;99.90;;;;;;5071652;28;20421;-78
2022/09/15 11:05:34;;;;;;;0.50;0.40;;;19.20;99.90;;;;;;5071967;28;20507;-78
2022/09/15 11:10:34;;;;;;;0.50;0.40;;;18.30;99.90;;;;;;5073020;22;20497;-76
2022/09/15 11:13:08;;;;;;;0.50;0.40;;;17.60;99.90;;;;;;5023750;28;20430;-76
2022/09/15 11:15:51;;;;;;;0.50;0.30;;;17.40;99.90;;;;;;5031478;28;20812;-75
2022/09/15 11:18:39;;;;;;;0.50;0.40;;;17.00;99.90;;;;;;5031826;28;20954;-76
2022/09/15 11:21:23;;;;;;;0.50;0.40;;;16.60;99.90;;;;;;5031264;28;20435;-74
2022/09/15 11:24:11;;;;;;;0.50;0.40;;;16.50;99.90;;;;;;5030805;28;20480;-74
2022/09/15 11:26:44;;;;;;;0.50;0.40;;;16.20;99.90;;;;;;5030681;28;20438;-75
2022/09/15 11:29:18;;;;;;;0.50;0.40;;;16.10;99.90;;;;;;5031329;28;20462;-75
2022/09/15 11:31:48;;;;;;;0.50;0.40;;;16.00;99.90;;;;;;5031015;28;20426;-75
2022/09/15 11:34:21;;;;;;;0.50;0.30;;;16.00;99.90;;;;;;5030907;28;20457;-76
2022/09/15 11:36:54;;;;;;;0.50;0.40;;;16.20;99.90;;;;;;5030759;28;20442;-75
2022/09/15 11:39:24;;;;;;;0.50;0.40;;;16.30;99.90;;;;;;5031098;28;20460;-75
2022/09/15 11:41:56;;;;;;;0.50;0.40;;;16.20;99.90;;;;;;5031410;28;20973;-75
2022/09/15 11:44:27;;;;;;;0.50;0.40;;;16.30;99.90;;;;;;5030570;28;20452;-76
2022/09/15 11:47:07;;;;;;;0.50;0.30;;;16.50;99.90;;;;;;5031069;28;20472;-76
2022/09/15 11:49:42;;;;;;;0.50;0.40;;;16.80;99.90;;;;;;5031407;28;20472;-75
2022/09/15 11:52:22;;;;;;;0.50;0.30;;;17.40;99.90;;;;;;5031360;28;20903;-72
2022/09/15 11:54:55;;;;;;;0.60;0.50;;;18.20;99.90;;;;;;5031072;28;20832;-74
2022/09/15 11:57:30;;;;;;;1.17;1.07;;;18.60;99.90;;;;;;5030609;28;20469;-73
2022/09/15 12:00:02;;;;;;;0.50;0.30;;;19.10;99.90;;;;;;5031503;28;20472;-75
2022/09/15 12:02:34;;;;;;;0.50;0.40;;;19.70;99.90;;;;;;5031291;28;20999;-73
2022/09/15 12:05:11;;;;;;;0.50;0.40;;;19.90;99.90;;;;;;5031224;28;20810;-75
2022/09/15 12:07:46;;;;;;;0.50;0.30;;;20.20;99.90;;;;;;5030540;28;20479;-75
2022/09/15 12:10:19;;;;;;;0.50;0.40;;;20.30;99.90;;;;;;5030908;28;20481;-75
2022/09/15 12:12:50;;;;;;;0.60;0.50;;;20.40;99.90;;;;;;5031657;28;20827;-76
2022/09/15 12:15:25;;;;;;;0.50;0.30;;;20.30;99.90;;;;;;5030781;28;20461;-75
2022/09/15 12:17:59;;;;;;;0.90;0.57;;;20.00;99.90;;;;;;5031149;28;20480;-75
2022/09/15 12:20:30;;;;;;;0.50;0.30;;;19.80;99.90;;;;;;5030177;28;20454;-74
2022/09/15 12:23:02;;;;;;;0.50;0.33;;;19.40;99.90;;;;;;5030991;28;20529;-75
2022/09/15 12:25:36;;;;;;;0.50;0.40;;;19.20;99.90;;;;;;5030363;28;20485;-75
2022/09/15 12:28:37;;;;;;;0.83;0.83;;;19.00;99.90;;;;;;5031064;28;20458;-74
2022/09/15 12:31:27;;;;;;;0.50;0.40;;;18.80;99.90;;;;;;5030279;28;20779;-75
2022/09/15 12:33:56;;;;;;;0.50;0.30;;;18.60;99.90;;;;;;5032315;28;20528;-74
2022/09/15 12:36:41;;;;;;;0.50;0.40;;;18.20;99.90;;;;;;5034124;28;20517;-76
2022/09/15 12:39:28;;;;;;;0.50;0.40;;;17.90;99.90;;;;;;5033903;28;20464;-76
2022/09/15 12:42:04;;;;;;;0.60;0.40;;;17.60;99.90;;;;;;5034193;28;20439;-75
2022/09/15 12:44:36;;;;;;;0.50;0.30;;;17.30;99.90;;;;;;5033878;28;20517;-75
2022/09/15 12:47:07;;;;;;;0.60;0.57;;;17.00;99.90;;;;;;5033686;28;20438;-72
2022/09/15 12:49:36;;;;;;;0.50;0.37;;;16.90;99.90;;;;;;5033818;28;20458;-76
2022/09/15 12:52:06;;;;;;;0.50;0.40;;;16.90;99.90;;;;;;5033982;28;20559;-76
2022/09/15 12:54:37;;;;;;;0.50;0.40;;;17.00;99.90;;;;;;5034588;28;20803;-76
2022/09/15 12:57:06;;;;;;;0.50;0.40;;;17.00;99.90;;;;;;5033950;28;20449;-76
2022/09/15 12:59:35;;;;;;;0.50;0.40;;;17.00;99.90;;;;;;5033233;28;20516;-76
2022/09/15 13:02:01;;;;;;;0.50;0.40;;;17.10;99.90;;;;;;5033584;28;20874;-76
2022/09/15 13:04:53;;;;;;;0.50;0.40;;;17.20;99.90;;;;;;5033346;28;20533;-75
2022/09/15 13:07:37;;;;;;;0.50;0.30;;;17.40;99.90;;;;;;5033781;28;20470;-76
2022/09/15 13:10:38;;;;;;;0.50;0.37;;;17.60;99.90;;;;;;5033154;28;20561;-75
2022/09/15 13:13:34;;;;;;;0.50;0.30;;;17.90;99.90;;;;;;5001095;28;20823;-76